(°C)
-1°
(°C)
-4°
-2°
-1°
غرب
WSW
WSW
ENE
ENE
ENE
ENE
(كم/سا)
2-3
1-3
1-4
3-7
5-11
6-13
8-14
(مم)
0
0
0
0
0
0
0
(%)
0
0
0
0
0
0
0

Sun elevation

/ 14.8°
sun-icon
UV 6
06:21
20:06
هلال الصباح (59°)
09:07
00:42

METAR for إنسبروك (LOWI)

الوقت Conditions درجة الحرارة/
نقطة الندى
رياح مجال رؤية حالة الطقس غيوم الضغط Change Raw
VFR -1°C / -4°C variable 2kt >10km - Few Clouds 5000ft 1021 No Significant change LOWI 170520Z VRB02KT 9999 FEW050 M01/M04 Q1021 NOSIG
VFR -1°C / -4°C variable 1kt >10km - Few Clouds 5000ft 1021 No Significant change LOWI 170450Z VRB01KT 9999 FEW050 M01/M04 Q1021 NOSIG
VFR -2°C / -4°C variable 1kt >10km - Few Clouds 6000ft 1021 No Significant change LOWI 170420Z VRB01KT 9999 FEW060 M02/M04 Q1021 NOSIG
VFR -1°C / -4°C variable 2kt >10km - Few Clouds 6000ft 1020 No Significant change LOWI 170350Z VRB02KT 9999 FEW060 M01/M04 Q1020 NOSIG
VFR -1°C / -4°C 270º 3kt >10km - Clear 1020 - LOWI 170320Z AUTO 27003KT 9999 NCD M01/M04 Q1020
VFR -1°C / -4°C variable 1kt >10km - Few Clouds 5000ft 1020 - LOWI 170250Z AUTO VRB01KT 9999 FEW050 M01/M04 Q1020
VFR 0°C / -3°C variable 1kt >10km - Few Clouds 5000ft 1020 - LOWI 170220Z AUTO VRB01KT 9999 FEW050 M00/M03 Q1020
VFR 0°C / -3°C variable 1kt >10km - Scattered Clouds 5000ft 1021 - LOWI 170150Z AUTO VRB01KT 9999 SCT050 M00/M03 Q1021
VFR 0°C / -3°C variable 2kt >10km - Broken Clouds 5000ft 1021 - LOWI 170120Z AUTO VRB02KT 9999 BKN050 00/M03 Q1021
VFR 0°C / -3°C variable 2kt >10km - Few Clouds 5000ft 1021 - LOWI 170050Z AUTO VRB02KT 9999 FEW050 00/M03 Q1021
VFR 0°C / -4°C variable 2kt >10km - Few Clouds 5000ft 1021 - LOWI 170020Z AUTO VRB02KT 9999 FEW050 M00/M04 Q1021
VFR 0°C / -4°C variable 1kt >10km - Clear 1021 - LOWI 162350Z AUTO VRB01KT 9999 NCD 00/M04 Q1021
VFR 1°C / -3°C variable 1kt >10km - Clear 1021 - LOWI 162320Z AUTO VRB01KT 9999 NCD 01/M03 Q1021
VFR 2°C / -4°C variable 2kt >10km - Clear 1021 - LOWI 162250Z AUTO VRB02KT 9999 NCD 02/M04 Q1021
VFR 2°C / -3°C variable 1kt >10km - Clear 1021 - LOWI 162220Z AUTO VRB01KT 9999 NCD 02/M03 Q1021
VFR 2°C / -3°C variable 2kt >10km - Clear 1021 - LOWI 162150Z AUTO VRB02KT 9999 NCD 02/M03 Q1021
VFR 3°C / -4°C variable 1kt >10km - Few Clouds 5000ft 1021 - LOWI 162120Z AUTO VRB01KT 9999 FEW050 03/M04 Q1021
VFR 4°C / -4°C 50º variable 360º to 100º 4kt >10km - Few Clouds 5000ft 1021 - LOWI 162050Z AUTO 05004KT 360V100 9999 FEW050 04/M04 Q1021
VFR 4°C / -4°C 80º variable 020º to 150º 4kt >10km - Few Clouds 6000ft 1021 - LOWI 162020Z AUTO 08004KT 020V150 9999 FEW060 04/M04 Q1021
VFR 4°C / -4°C variable 2kt >10km - Few Clouds 6000ft 1020 - LOWI 161950Z AUTO VRB02KT 9999 FEW060 04/M04 Q1020
VFR 5°C / -3°C 50º variable 350º to 160º 5kt >10km - Clear 1020 - LOWI 161920Z AUTO 05005KT 350V160 9999 NCD 05/M03 Q1020
VFR 6°C / -3°C 60º variable 030º to 110º 6kt >10km - Clear 1020 - LOWI 161850Z AUTO 06006KT 030V110 9999 NCD 06/M03 Q1020
VFR 7°C / -3°C 60º variable 040º to 100º 10kt >10km - Few Clouds 7000ft 1019 No Significant change LOWI 161820Z 06010KT 040V100 9999 FEW070 07/M03 Q1019 NOSIG
VFR 7°C / -4°C 90º 11kt >10km - Few Clouds 7000ft 1019 No Significant change LOWI 161750Z 09011KT 9999 FEW070 07/M04 Q1019 NOSIG

VFR

-1°C / -4°C

[أكثر]
رياح variable 2kt
مجال رؤية >10km
حالة الطقس -
غيوم Few Clouds 5000ft
الضغط 1021
Change No Significant change
Raw LOWI 170520Z VRB02KT 9999 FEW050 M01/M04 Q1021 NOSIG

VFR

-1°C / -4°C

[أكثر]
رياح variable 1kt
مجال رؤية >10km
حالة الطقس -
غيوم Few Clouds 5000ft
الضغط 1021
Change No Significant change
Raw LOWI 170450Z VRB01KT 9999 FEW050 M01/M04 Q1021 NOSIG

VFR

-2°C / -4°C

[أكثر]
رياح variable 1kt
مجال رؤية >10km
حالة الطقس -
غيوم Few Clouds 6000ft
الضغط 1021
Change No Significant change
Raw LOWI 170420Z VRB01KT 9999 FEW060 M02/M04 Q1021 NOSIG

VFR

-1°C / -4°C

[أكثر]
رياح variable 2kt
مجال رؤية >10km
حالة الطقس -
غيوم Few Clouds 6000ft
الضغط 1020
Change No Significant change
Raw LOWI 170350Z VRB02KT 9999 FEW060 M01/M04 Q1020 NOSIG

VFR

-1°C / -4°C

[أكثر]
رياح 270º 3kt
مجال رؤية >10km
حالة الطقس -
غيوم Clear
الضغط 1020
Change -
Raw LOWI 170320Z AUTO 27003KT 9999 NCD M01/M04 Q1020

VFR

-1°C / -4°C

[أكثر]
رياح variable 1kt
مجال رؤية >10km
حالة الطقس -
غيوم Few Clouds 5000ft
الضغط 1020
Change -
Raw LOWI 170250Z AUTO VRB01KT 9999 FEW050 M01/M04 Q1020

VFR

0°C / -3°C

[أكثر]
رياح variable 1kt
مجال رؤية >10km
حالة الطقس -
غيوم Few Clouds 5000ft
الضغط 1020
Change -
Raw LOWI 170220Z AUTO VRB01KT 9999 FEW050 M00/M03 Q1020

VFR

0°C / -3°C

[أكثر]
رياح variable 1kt
مجال رؤية >10km
حالة الطقس -
غيوم Scattered Clouds 5000ft
الضغط 1021
Change -
Raw LOWI 170150Z AUTO VRB01KT 9999 SCT050 M00/M03 Q1021

VFR

0°C / -3°C

[أكثر]
رياح variable 2kt
مجال رؤية >10km
حالة الطقس -
غيوم Broken Clouds 5000ft
الضغط 1021
Change -
Raw LOWI 170120Z AUTO VRB02KT 9999 BKN050 00/M03 Q1021

VFR

0°C / -3°C

[أكثر]
رياح variable 2kt
مجال رؤية >10km
حالة الطقس -
غيوم Few Clouds 5000ft
الضغط 1021
Change -
Raw LOWI 170050Z AUTO VRB02KT 9999 FEW050 00/M03 Q1021

VFR

0°C / -4°C

[أكثر]
رياح variable 2kt
مجال رؤية >10km
حالة الطقس -
غيوم Few Clouds 5000ft
الضغط 1021
Change -
Raw LOWI 170020Z AUTO VRB02KT 9999 FEW050 M00/M04 Q1021

VFR

0°C / -4°C

[أكثر]
رياح variable 1kt
مجال رؤية >10km
حالة الطقس -
غيوم Clear
الضغط 1021
Change -
Raw LOWI 162350Z AUTO VRB01KT 9999 NCD 00/M04 Q1021

VFR

1°C / -3°C

[أكثر]
رياح variable 1kt
مجال رؤية >10km
حالة الطقس -
غيوم Clear
الضغط 1021
Change -
Raw LOWI 162320Z AUTO VRB01KT 9999 NCD 01/M03 Q1021

VFR

2°C / -4°C

[أكثر]
رياح variable 2kt
مجال رؤية >10km
حالة الطقس -
غيوم Clear
الضغط 1021
Change -
Raw LOWI 162250Z AUTO VRB02KT 9999 NCD 02/M04 Q1021

VFR

2°C / -3°C

[أكثر]
رياح variable 1kt
مجال رؤية >10km
حالة الطقس -
غيوم Clear
الضغط 1021
Change -
Raw LOWI 162220Z AUTO VRB01KT 9999 NCD 02/M03 Q1021

VFR

2°C / -3°C

[أكثر]
رياح variable 2kt
مجال رؤية >10km
حالة الطقس -
غيوم Clear
الضغط 1021
Change -
Raw LOWI 162150Z AUTO VRB02KT 9999 NCD 02/M03 Q1021

VFR

3°C / -4°C

[أكثر]
رياح variable 1kt
مجال رؤية >10km
حالة الطقس -
غيوم Few Clouds 5000ft
الضغط 1021
Change -
Raw LOWI 162120Z AUTO VRB01KT 9999 FEW050 03/M04 Q1021

VFR

4°C / -4°C

[أكثر]
رياح 50º variable 360º to 100º 4kt
مجال رؤية >10km
حالة الطقس -
غيوم Few Clouds 5000ft
الضغط 1021
Change -
Raw LOWI 162050Z AUTO 05004KT 360V100 9999 FEW050 04/M04 Q1021

VFR

4°C / -4°C

[أكثر]
رياح 80º variable 020º to 150º 4kt
مجال رؤية >10km
حالة الطقس -
غيوم Few Clouds 6000ft
الضغط 1021
Change -
Raw LOWI 162020Z AUTO 08004KT 020V150 9999 FEW060 04/M04 Q1021

VFR

4°C / -4°C

[أكثر]
رياح variable 2kt
مجال رؤية >10km
حالة الطقس -
غيوم Few Clouds 6000ft
الضغط 1020
Change -
Raw LOWI 161950Z AUTO VRB02KT 9999 FEW060 04/M04 Q1020

VFR

5°C / -3°C

[أكثر]
رياح 50º variable 350º to 160º 5kt
مجال رؤية >10km
حالة الطقس -
غيوم Clear
الضغط 1020
Change -
Raw LOWI 161920Z AUTO 05005KT 350V160 9999 NCD 05/M03 Q1020

VFR

6°C / -3°C

[أكثر]
رياح 60º variable 030º to 110º 6kt
مجال رؤية >10km
حالة الطقس -
غيوم Clear
الضغط 1020
Change -
Raw LOWI 161850Z AUTO 06006KT 030V110 9999 NCD 06/M03 Q1020

VFR

7°C / -3°C

[أكثر]
رياح 60º variable 040º to 100º 10kt
مجال رؤية >10km
حالة الطقس -
غيوم Few Clouds 7000ft
الضغط 1019
Change No Significant change
Raw LOWI 161820Z 06010KT 040V100 9999 FEW070 07/M03 Q1019 NOSIG

VFR

7°C / -4°C

[أكثر]
رياح 90º 11kt
مجال رؤية >10km
حالة الطقس -
غيوم Few Clouds 7000ft
الضغط 1019
Change No Significant change
Raw LOWI 161750Z 09011KT 9999 FEW070 07/M04 Q1019 NOSIG

TAF for إنسبروك (LOWI)

From till


Maximum Temperature 11ºC on . Minimum Temperature 1ºC on .
From till Wind variable 2kt. Visibility 10km or more. Few Clouds 6000ft.
Becoming from till Wind 90º 12kt. Visibility 10km or more. Few Clouds 6000ft.
From till Wind variable 5kt. Visibility 8000m. Light Rain . Scattered Clouds 4000ft. Broken Clouds 7000ft.
Temporarly from till Visibility 4000m. Light Snow Light Rain . Broken Clouds 1200ft.

Raw: TAF LOWI 170515Z 1706/1806 VRB02KT 9999 FEW060 TX11/1714Z TN01/1706Z BECMG 1708/1710 09012KT FM171800 VRB05KT 8000 -RA SCT040 BKN070 TEMPO 1720/1806 4000 -SNRA BKN012

Current satellite and rain images for إنسبروك, النمسا

  • هطول:
  • <1 مم
  • 1-2 مم
  • 2-5 مم
  • >5 مم

المؤشر يدل على موقع إنسبروك. [أكثر]

The real-time satellite image combines visible light during daytime with infrared radiation during nighttime. At night, the image is not dark as infrared radiation can detect temperature differences. Unfortunately, low clouds and fog are difficult to distinguish from ground temperatures and thus can be almost invisible during the night. Meteosat satellite images for Europe are updated in real-time every 5 minutes. GOES-16/GOES-17 (North & South America) and Himawari (Asia) images update every 10 minutes.

يقدر هطول الأمطار من الرادار والأقمار الصناعية. تقديرات هطول الأمطار ليلا من قبل الأقمار الصناعية هي أقل دقة من النهار. اللون البرتقالي يعبر الأماكن حيث تم الكشف عن البرق (أكثر من أوروبا).

حقوق النسخ 2021 EUMETSAT / meteoblue. بيانات البرق مقدمة من nowcast.

رادار لإنسبروك

مؤشر المكان يشير الى إنسبروك. تظهر في هذه الرسوم المتحركة هطول الامطار بالرادار للساعة الماضية, و توقعات 2h. الأمطار والثلوج الخفيفة يمكن أن تكون غير مرئية للرادار. كثافة هطول الأمطار ممثلة بلون يتدرج من الأزرق الفاتح إلى اللون الأرجواني الغامق.
Copyright 2021 Deutscher Wetterdienst / meteoblue.

حالة الطقس الحالية والتحذيرات

EUMETNET – MeteoAlarm

pictomap

المصدر: ZAMG

تأخر الوقت بين هذا الموقع و موقعwww.meteoalarm.eu ممكنة، لأحدث المعلومات حول مستويات الانذار والتي تم نشرها بالمشاركة مع منظمة خدمات الأرصاد الجوية الوطنية يرجى استخدام www.meteoalarm.eu.